sensor_id;sensor_type;location;lat;lon;timestamp;P1;durP1;ratioP1;P2;durP2;ratioP2
27893;SDS011;15240;50.812;4.792;2023-12-20T00:01:40;14.00;;;5.77;;
27893;SDS011;15240;50.812;4.792;2023-12-20T00:04:06;12.23;;;3.93;;
27893;SDS011;15240;50.812;4.792;2023-12-20T00:06:32;8.70;;;3.33;;
27893;SDS011;15240;50.812;4.792;2023-12-20T00:08:58;22.23;;;3.40;;
27893;SDS011;15240;50.812;4.792;2023-12-20T00:11:24;13.70;;;3.27;;
27893;SDS011;15240;50.812;4.792;2023-12-20T00:13:50;18.00;;;3.20;;
27893;SDS011;15240;50.812;4.792;2023-12-20T00:16:16;18.13;;;3.87;;
27893;SDS011;15240;50.812;4.792;2023-12-20T00:18:42;16.20;;;3.20;;
27893;SDS011;15240;50.812;4.792;2023-12-20T00:21:08;15.13;;;3.47;;
27893;SDS011;15240;50.812;4.792;2023-12-20T00:23:34;12.93;;;3.13;;
27893;SDS011;15240;50.812;4.792;2023-12-20T00:26:00;16.03;;;3.70;;
27893;SDS011;15240;50.812;4.792;2023-12-20T00:28:26;18.70;;;4.00;;
27893;SDS011;15240;50.812;4.792;2023-12-20T00:30:52;15.07;;;3.20;;
27893;SDS011;15240;50.812;4.792;2023-12-20T00:33:18;15.43;;;3.40;;
27893;SDS011;15240;50.812;4.792;2023-12-20T00:35:45;13.67;;;3.70;;
27893;SDS011;15240;50.812;4.792;2023-12-20T00:38:11;16.67;;;3.20;;
27893;SDS011;15240;50.812;4.792;2023-12-20T00:40:37;13.00;;;3.07;;
27893;SDS011;15240;50.812;4.792;2023-12-20T00:43:03;18.47;;;3.60;;
27893;SDS011;15240;50.812;4.792;2023-12-20T00:45:29;11.10;;;3.33;;
27893;SDS011;15240;50.812;4.792;2023-12-20T00:47:55;10.90;;;3.60;;
27893;SDS011;15240;50.812;4.792;2023-12-20T00:50:21;12.80;;;3.03;;
27893;SDS011;15240;50.812;4.792;2023-12-20T00:52:48;9.77;;;3.17;;
27893;SDS011;15240;50.812;4.792;2023-12-20T00:55:14;13.33;;;2.97;;
27893;SDS011;15240;50.812;4.792;2023-12-20T00:57:40;13.70;;;2.80;;
27893;SDS011;15240;50.812;4.792;2023-12-20T01:00:06;10.17;;;2.73;;
27893;SDS011;15240;50.812;4.792;2023-12-20T01:02:34;10.53;;;2.80;;
27893;SDS011;15240;50.812;4.792;2023-12-20T01:05:00;14.33;;;3.37;;
27893;SDS011;15240;50.812;4.792;2023-12-20T01:07:27;10.40;;;2.90;;
27893;SDS011;15240;50.812;4.792;2023-12-20T01:09:53;12.00;;;2.80;;
27893;SDS011;15240;50.812;4.792;2023-12-20T01:12:19;9.43;;;2.67;;
27893;SDS011;15240;50.812;4.792;2023-12-20T01:14:45;14.27;;;3.40;;
27893;SDS011;15240;50.812;4.792;2023-12-20T01:17:12;11.50;;;2.80;;
27893;SDS011;15240;50.812;4.792;2023-12-20T01:19:38;18.23;;;4.33;;
27893;SDS011;15240;50.812;4.792;2023-12-20T01:22:04;17.27;;;3.20;;
27893;SDS011;15240;50.812;4.792;2023-12-20T01:24:30;19.43;;;3.37;;
27893;SDS011;15240;50.812;4.792;2023-12-20T01:26:56;10.17;;;3.33;;
27893;SDS011;15240;50.812;4.792;2023-12-20T01:29:22;17.17;;;3.20;;
27893;SDS011;15240;50.812;4.792;2023-12-20T01:31:48;10.90;;;3.33;;
27893;SDS011;15240;50.812;4.792;2023-12-20T01:34:15;19.00;;;3.53;;
27893;SDS011;15240;50.812;4.792;2023-12-20T01:36:41;17.53;;;3.60;;
27893;SDS011;15240;50.812;4.792;2023-12-20T01:39:07;15.87;;;3.47;;
27893;SDS011;15240;50.812;4.792;2023-12-20T01:41:33;13.43;;;3.43;;
27893;SDS011;15240;50.812;4.792;2023-12-20T01:43:59;13.50;;;4.13;;
27893;SDS011;15240;50.812;4.792;2023-12-20T01:46:25;18.47;;;3.93;;
27893;SDS011;15240;50.812;4.792;2023-12-20T01:48:51;17.40;;;4.10;;
27893;SDS011;15240;50.812;4.792;2023-12-20T01:51:18;12.50;;;4.10;;
27893;SDS011;15240;50.812;4.792;2023-12-20T01:53:44;12.30;;;3.93;;
27893;SDS011;15240;50.812;4.792;2023-12-20T01:56:11;13.13;;;4.23;;
27893;SDS011;15240;50.812;4.792;2023-12-20T01:58:39;19.77;;;4.50;;
27893;SDS011;15240;50.812;4.792;2023-12-20T02:01:08;19.33;;;4.93;;
27893;SDS011;15240;50.812;4.792;2023-12-20T02:03:34;17.67;;;4.47;;
27893;SDS011;15240;50.812;4.792;2023-12-20T02:06:01;20.50;;;4.20;;
27893;SDS011;15240;50.812;4.792;2023-12-20T02:08:28;21.47;;;4.30;;
27893;SDS011;15240;50.812;4.792;2023-12-20T02:10:54;20.03;;;5.00;;
27893;SDS011;15240;50.812;4.792;2023-12-20T02:13:21;16.23;;;4.90;;
27893;SDS011;15240;50.812;4.792;2023-12-20T02:15:47;24.63;;;4.70;;
27893;SDS011;15240;50.812;4.792;2023-12-20T02:18:13;18.27;;;4.67;;
27893;SDS011;15240;50.812;4.792;2023-12-20T02:20:41;22.17;;;4.57;;
27893;SDS011;15240;50.812;4.792;2023-12-20T02:23:07;18.47;;;4.30;;
27893;SDS011;15240;50.812;4.792;2023-12-20T02:25:33;15.63;;;4.33;;
27893;SDS011;15240;50.812;4.792;2023-12-20T02:27:59;19.87;;;4.33;;
27893;SDS011;15240;50.812;4.792;2023-12-20T02:30:26;18.13;;;4.77;;
27893;SDS011;15240;50.812;4.792;2023-12-20T02:32:52;25.00;;;5.40;;
27893;SDS011;15240;50.812;4.792;2023-12-20T02:35:19;17.87;;;4.80;;
27893;SDS011;15240;50.812;4.792;2023-12-20T02:37:45;19.03;;;4.80;;
27893;SDS011;15240;50.812;4.792;2023-12-20T02:40:11;23.67;;;4.97;;
27893;SDS011;15240;50.812;4.792;2023-12-20T02:42:37;17.43;;;4.67;;
27893;SDS011;15240;50.812;4.792;2023-12-20T02:45:04;16.27;;;4.87;;
27893;SDS011;15240;50.812;4.792;2023-12-20T02:47:30;21.07;;;5.67;;
27893;SDS011;15240;50.812;4.792;2023-12-20T02:49:56;21.50;;;5.17;;
27893;SDS011;15240;50.812;4.792;2023-12-20T02:52:23;16.50;;;4.33;;
27893;SDS011;15240;50.812;4.792;2023-12-20T02:54:49;26.23;;;5.30;;
27893;SDS011;15240;50.812;4.792;2023-12-20T02:57:15;17.50;;;5.63;;
27893;SDS011;15240;50.812;4.792;2023-12-20T02:59:41;20.93;;;5.27;;
27893;SDS011;15240;50.812;4.792;2023-12-20T03:02:07;21.17;;;4.63;;
27893;SDS011;15240;50.812;4.792;2023-12-20T03:04:33;20.80;;;4.60;;
27893;SDS011;15240;50.812;4.792;2023-12-20T03:06:59;27.23;;;5.37;;
27893;SDS011;15240;50.812;4.792;2023-12-20T03:09:25;20.53;;;4.40;;
27893;SDS011;15240;50.812;4.792;2023-12-20T03:11:51;27.63;;;5.07;;
27893;SDS011;15240;50.812;4.792;2023-12-20T03:14:17;16.60;;;5.20;;
27893;SDS011;15240;50.812;4.792;2023-12-20T03:16:46;18.67;;;4.80;;
27893;SDS011;15240;50.812;4.792;2023-12-20T03:19:12;22.30;;;5.30;;
27893;SDS011;15240;50.812;4.792;2023-12-20T03:21:38;22.63;;;5.30;;
27893;SDS011;15240;50.812;4.792;2023-12-20T03:24:04;20.63;;;4.80;;
27893;SDS011;15240;50.812;4.792;2023-12-20T03:26:30;24.47;;;5.50;;
27893;SDS011;15240;50.812;4.792;2023-12-20T03:28:56;25.77;;;5.93;;
27893;SDS011;15240;50.812;4.792;2023-12-20T03:31:22;19.97;;;5.47;;
27893;SDS011;15240;50.812;4.792;2023-12-20T03:33:48;18.90;;;5.33;;
27893;SDS011;15240;50.812;4.792;2023-12-20T03:36:17;21.40;;;5.43;;
27893;SDS011;15240;50.812;4.792;2023-12-20T03:38:43;18.23;;;5.30;;
27893;SDS011;15240;50.812;4.792;2023-12-20T03:41:09;17.60;;;5.73;;
27893;SDS011;15240;50.812;4.792;2023-12-20T03:43:35;20.93;;;6.07;;
27893;SDS011;15240;50.812;4.792;2023-12-20T03:46:01;25.90;;;6.00;;
27893;SDS011;15240;50.812;4.792;2023-12-20T03:48:28;24.77;;;6.43;;
27893;SDS011;15240;50.812;4.792;2023-12-20T03:50:54;22.03;;;6.17;;
27893;SDS011;15240;50.812;4.792;2023-12-20T03:53:20;28.63;;;6.73;;
27893;SDS011;15240;50.812;4.792;2023-12-20T03:55:47;22.33;;;7.20;;
27893;SDS011;15240;50.812;4.792;2023-12-20T03:58:13;29.53;;;7.43;;
27893;SDS011;15240;50.812;4.792;2023-12-20T04:00:39;25.00;;;7.43;;
27893;SDS011;15240;50.812;4.792;2023-12-20T04:03:07;29.63;;;7.37;;
27893;SDS011;15240;50.812;4.792;2023-12-20T04:05:33;24.93;;;6.70;;
27893;SDS011;15240;50.812;4.792;2023-12-20T04:07:59;27.10;;;7.27;;
27893;SDS011;15240;50.812;4.792;2023-12-20T04:10:25;25.80;;;7.57;;
27893;SDS011;15240;50.812;4.792;2023-12-20T04:12:51;25.97;;;7.10;;
27893;SDS011;15240;50.812;4.792;2023-12-20T04:15:17;33.43;;;7.57;;
27893;SDS011;15240;50.812;4.792;2023-12-20T04:17:44;23.77;;;7.17;;
27893;SDS011;15240;50.812;4.792;2023-12-20T04:20:10;21.83;;;7.37;;
27893;SDS011;15240;50.812;4.792;2023-12-20T04:22:36;24.73;;;7.73;;
27893;SDS011;15240;50.812;4.792;2023-12-20T04:25:02;25.17;;;7.57;;
27893;SDS011;15240;50.812;4.792;2023-12-20T04:27:28;30.20;;;7.10;;
27893;SDS011;15240;50.812;4.792;2023-12-20T04:29:54;25.10;;;7.27;;
27893;SDS011;15240;50.812;4.792;2023-12-20T04:32:20;26.07;;;7.70;;
27893;SDS011;15240;50.812;4.792;2023-12-20T04:34:46;26.03;;;7.10;;
27893;SDS011;15240;50.812;4.792;2023-12-20T04:37:13;24.00;;;7.20;;
27893;SDS011;15240;50.812;4.792;2023-12-20T04:39:39;26.43;;;7.70;;
27893;SDS011;15240;50.812;4.792;2023-12-20T04:42:06;20.03;;;7.00;;
27893;SDS011;15240;50.812;4.792;2023-12-20T04:44:32;24.67;;;7.07;;
27893;SDS011;15240;50.812;4.792;2023-12-20T04:46:59;27.67;;;7.10;;
27893;SDS011;15240;50.812;4.792;2023-12-20T04:49:25;22.83;;;6.73;;
27893;SDS011;15240;50.812;4.792;2023-12-20T04:51:51;23.70;;;6.77;;
27893;SDS011;15240;50.812;4.792;2023-12-20T04:54:17;21.73;;;6.60;;
27893;SDS011;15240;50.812;4.792;2023-12-20T04:56:43;25.13;;;6.63;;
27893;SDS011;15240;50.812;4.792;2023-12-20T04:59:09;23.77;;;7.67;;
27893;SDS011;15240;50.812;4.792;2023-12-20T05:01:35;24.87;;;7.10;;
27893;SDS011;15240;50.812;4.792;2023-12-20T05:04:01;20.03;;;6.40;;
27893;SDS011;15240;50.812;4.792;2023-12-20T05:06:27;21.13;;;6.77;;
27893;SDS011;15240;50.812;4.792;2023-12-20T05:08:53;20.77;;;6.40;;
27893;SDS011;15240;50.812;4.792;2023-12-20T05:11:19;20.23;;;6.33;;
27893;SDS011;15240;50.812;4.792;2023-12-20T05:13:45;27.80;;;7.10;;
27893;SDS011;15240;50.812;4.792;2023-12-20T05:16:12;22.00;;;7.23;;
27893;SDS011;15240;50.812;4.792;2023-12-20T05:18:39;24.07;;;6.93;;
27893;SDS011;15240;50.812;4.792;2023-12-20T05:21:05;23.40;;;7.10;;
27893;SDS011;15240;50.812;4.792;2023-12-20T05:23:31;22.57;;;7.10;;
27893;SDS011;15240;50.812;4.792;2023-12-20T05:25:58;23.93;;;7.07;;
27893;SDS011;15240;50.812;4.792;2023-12-20T05:28:24;25.67;;;7.67;;
27893;SDS011;15240;50.812;4.792;2023-12-20T05:30:50;26.33;;;7.93;;
27893;SDS011;15240;50.812;4.792;2023-12-20T05:33:16;25.47;;;7.90;;
27893;SDS011;15240;50.812;4.792;2023-12-20T05:35:42;32.13;;;7.80;;
27893;SDS011;15240;50.812;4.792;2023-12-20T05:38:08;28.93;;;7.70;;
27893;SDS011;15240;50.812;4.792;2023-12-20T05:40:34;23.63;;;7.10;;
27893;SDS011;15240;50.812;4.792;2023-12-20T05:43:00;30.50;;;8.13;;
27893;SDS011;15240;50.812;4.792;2023-12-20T05:45:27;29.10;;;8.03;;
27893;SDS011;15240;50.812;4.792;2023-12-20T05:47:53;26.70;;;7.47;;
27893;SDS011;15240;50.812;4.792;2023-12-20T05:50:19;24.67;;;8.73;;
27893;SDS011;15240;50.812;4.792;2023-12-20T05:52:46;29.77;;;7.97;;
27893;SDS011;15240;50.812;4.792;2023-12-20T05:55:12;28.87;;;7.80;;
27893;SDS011;15240;50.812;4.792;2023-12-20T05:57:38;24.20;;;8.00;;
27893;SDS011;15240;50.812;4.792;2023-12-20T06:00:05;22.30;;;7.17;;
27893;SDS011;15240;50.812;4.792;2023-12-20T06:02:31;28.90;;;7.80;;
27893;SDS011;15240;50.812;4.792;2023-12-20T06:04:57;29.07;;;8.03;;
27893;SDS011;15240;50.812;4.792;2023-12-20T06:07:23;30.23;;;8.13;;
27893;SDS011;15240;50.812;4.792;2023-12-20T06:09:49;27.47;;;8.03;;
27893;SDS011;15240;50.812;4.792;2023-12-20T06:12:16;30.80;;;8.33;;
27893;SDS011;15240;50.812;4.792;2023-12-20T06:14:42;32.57;;;8.07;;
27893;SDS011;15240;50.812;4.792;2023-12-20T06:17:08;27.10;;;7.50;;
27893;SDS011;15240;50.812;4.792;2023-12-20T06:19:34;26.27;;;7.50;;
27893;SDS011;15240;50.812;4.792;2023-12-20T06:22:00;26.30;;;8.50;;
27893;SDS011;15240;50.812;4.792;2023-12-20T06:24:26;27.50;;;7.90;;
27893;SDS011;15240;50.812;4.792;2023-12-20T06:26:53;19.70;;;7.97;;
27893;SDS011;15240;50.812;4.792;2023-12-20T06:29:20;22.23;;;7.80;;
27893;SDS011;15240;50.812;4.792;2023-12-20T06:31:46;24.87;;;8.20;;
27893;SDS011;15240;50.812;4.792;2023-12-20T06:34:12;29.03;;;7.83;;
27893;SDS011;15240;50.812;4.792;2023-12-20T06:36:39;24.17;;;8.43;;
27893;SDS011;15240;50.812;4.792;2023-12-20T06:39:05;28.17;;;8.47;;
27893;SDS011;15240;50.812;4.792;2023-12-20T06:41:31;27.97;;;8.53;;
27893;SDS011;15240;50.812;4.792;2023-12-20T06:43:57;26.10;;;6.90;;
27893;SDS011;15240;50.812;4.792;2023-12-20T06:46:23;24.50;;;7.17;;
27893;SDS011;15240;50.812;4.792;2023-12-20T06:48:49;28.63;;;6.73;;
27893;SDS011;15240;50.812;4.792;2023-12-20T06:51:15;31.27;;;7.67;;
27893;SDS011;15240;50.812;4.792;2023-12-20T06:53:42;26.23;;;6.97;;
27893;SDS011;15240;50.812;4.792;2023-12-20T06:56:10;19.87;;;6.30;;
27893;SDS011;15240;50.812;4.792;2023-12-20T06:58:37;26.53;;;6.60;;
27893;SDS011;15240;50.812;4.792;2023-12-20T07:01:03;25.80;;;6.10;;
27893;SDS011;15240;50.812;4.792;2023-12-20T07:03:30;21.47;;;5.77;;
27893;SDS011;15240;50.812;4.792;2023-12-20T07:05:56;22.17;;;5.87;;
27893;SDS011;15240;50.812;4.792;2023-12-20T07:08:22;21.10;;;5.37;;
27893;SDS011;15240;50.812;4.792;2023-12-20T07:10:48;22.67;;;6.00;;
27893;SDS011;15240;50.812;4.792;2023-12-20T07:13:14;25.10;;;5.80;;
27893;SDS011;15240;50.812;4.792;2023-12-20T07:15:40;26.80;;;6.17;;
27893;SDS011;15240;50.812;4.792;2023-12-20T07:18:06;18.93;;;4.73;;
27893;SDS011;15240;50.812;4.792;2023-12-20T07:20:32;22.97;;;5.10;;
27893;SDS011;15240;50.812;4.792;2023-12-20T07:22:59;18.40;;;5.30;;
27893;SDS011;15240;50.812;4.792;2023-12-20T07:25:25;23.37;;;5.60;;
27893;SDS011;15240;50.812;4.792;2023-12-20T07:27:51;18.33;;;5.93;;
27893;SDS011;15240;50.812;4.792;2023-12-20T07:30:17;23.33;;;5.53;;
27893;SDS011;15240;50.812;4.792;2023-12-20T07:32:43;23.77;;;5.03;;
27893;SDS011;15240;50.812;4.792;2023-12-20T07:35:09;18.23;;;5.43;;
27893;SDS011;15240;50.812;4.792;2023-12-20T07:37:35;21.40;;;4.90;;
27893;SDS011;15240;50.812;4.792;2023-12-20T07:40:01;15.20;;;5.30;;
27893;SDS011;15240;50.812;4.792;2023-12-20T07:42:28;19.30;;;5.00;;
27893;SDS011;15240;50.812;4.792;2023-12-20T07:44:54;19.63;;;4.90;;
27893;SDS011;15240;50.812;4.792;2023-12-20T07:47:20;24.50;;;5.07;;
27893;SDS011;15240;50.812;4.792;2023-12-20T07:49:47;23.80;;;4.63;;
27893;SDS011;15240;50.812;4.792;2023-12-20T07:52:13;28.63;;;4.70;;
27893;SDS011;15240;50.812;4.792;2023-12-20T07:54:39;18.33;;;4.93;;
27893;SDS011;15240;50.812;4.792;2023-12-20T07:57:06;19.83;;;4.77;;
27893;SDS011;15240;50.812;4.792;2023-12-20T07:59:32;17.83;;;4.97;;
27893;SDS011;15240;50.812;4.792;2023-12-20T08:01:58;23.53;;;5.17;;
27893;SDS011;15240;50.812;4.792;2023-12-20T08:04:24;20.47;;;5.80;;
27893;SDS011;15240;50.812;4.792;2023-12-20T08:06:50;19.63;;;5.40;;
27893;SDS011;15240;50.812;4.792;2023-12-20T08:09:16;20.53;;;5.50;;
27893;SDS011;15240;50.812;4.792;2023-12-20T08:11:45;13.30;;;4.97;;
27893;SDS011;15240;50.812;4.792;2023-12-20T08:14:11;24.07;;;5.33;;
27893;SDS011;15240;50.812;4.792;2023-12-20T08:16:38;22.53;;;5.10;;
27893;SDS011;15240;50.812;4.792;2023-12-20T08:19:04;21.87;;;4.83;;
27893;SDS011;15240;50.812;4.792;2023-12-20T08:21:30;19.53;;;5.23;;
27893;SDS011;15240;50.812;4.792;2023-12-20T08:23:56;20.23;;;5.37;;
27893;SDS011;15240;50.812;4.792;2023-12-20T08:26:22;20.20;;;4.50;;
27893;SDS011;15240;50.812;4.792;2023-12-20T08:28:49;21.17;;;5.00;;
27893;SDS011;15240;50.812;4.792;2023-12-20T08:31:15;16.40;;;5.50;;
27893;SDS011;15240;50.812;4.792;2023-12-20T08:33:45;16.60;;;4.80;;
27893;SDS011;15240;50.812;4.792;2023-12-20T08:36:11;14.77;;;4.67;;
27893;SDS011;15240;50.812;4.792;2023-12-20T08:38:37;19.40;;;4.57;;
27893;SDS011;15240;50.812;4.792;2023-12-20T08:41:04;15.97;;;4.13;;
27893;SDS011;15240;50.812;4.792;2023-12-20T08:43:36;16.47;;;4.40;;
27893;SDS011;15240;50.812;4.792;2023-12-20T08:46:04;18.37;;;4.47;;
27893;SDS011;15240;50.812;4.792;2023-12-20T08:48:30;23.13;;;4.73;;
27893;SDS011;15240;50.812;4.792;2023-12-20T08:50:56;19.73;;;4.70;;
27893;SDS011;15240;50.812;4.792;2023-12-20T08:53:22;16.63;;;4.00;;
27893;SDS011;15240;50.812;4.792;2023-12-20T08:55:48;12.80;;;4.10;;
27893;SDS011;15240;50.812;4.792;2023-12-20T08:58:14;18.00;;;4.10;;
27893;SDS011;15240;50.812;4.792;2023-12-20T09:00:40;19.73;;;4.20;;
27893;SDS011;15240;50.812;4.792;2023-12-20T09:03:06;19.90;;;4.13;;
27893;SDS011;15240;50.812;4.792;2023-12-20T09:05:33;21.07;;;4.23;;
27893;SDS011;15240;50.812;4.792;2023-12-20T09:07:59;17.57;;;3.83;;
27893;SDS011;15240;50.812;4.792;2023-12-20T09:10:25;15.97;;;4.00;;
27893;SDS011;15240;50.812;4.792;2023-12-20T09:12:51;19.97;;;4.50;;
27893;SDS011;15240;50.812;4.792;2023-12-20T09:15:24;16.00;;;3.90;;
27893;SDS011;15240;50.812;4.792;2023-12-20T09:17:51;16.17;;;4.20;;
27893;SDS011;15240;50.812;4.792;2023-12-20T09:20:17;18.73;;;4.23;;
27893;SDS011;15240;50.812;4.792;2023-12-20T09:22:43;21.57;;;4.57;;
27893;SDS011;15240;50.812;4.792;2023-12-20T09:25:09;21.50;;;4.50;;
27893;SDS011;15240;50.812;4.792;2023-12-20T09:27:36;17.33;;;3.80;;
27893;SDS011;15240;50.812;4.792;2023-12-20T09:30:02;20.20;;;4.20;;
27893;SDS011;15240;50.812;4.792;2023-12-20T09:32:30;21.53;;;4.20;;
27893;SDS011;15240;50.812;4.792;2023-12-20T09:34:56;16.23;;;4.43;;
27893;SDS011;15240;50.812;4.792;2023-12-20T09:37:22;23.20;;;4.53;;
27893;SDS011;15240;50.812;4.792;2023-12-20T09:39:49;19.90;;;4.10;;
27893;SDS011;15240;50.812;4.792;2023-12-20T09:42:16;17.87;;;4.13;;
27893;SDS011;15240;50.812;4.792;2023-12-20T09:44:43;20.00;;;4.63;;
27893;SDS011;15240;50.812;4.792;2023-12-20T09:47:09;13.27;;;3.73;;
27893;SDS011;15240;50.812;4.792;2023-12-20T09:49:35;15.57;;;3.90;;
27893;SDS011;15240;50.812;4.792;2023-12-20T09:52:02;15.33;;;3.97;;
27893;SDS011;15240;50.812;4.792;2023-12-20T09:54:30;23.63;;;4.00;;
27893;SDS011;15240;50.812;4.792;2023-12-20T09:56:57;17.17;;;4.10;;
27893;SDS011;15240;50.812;4.792;2023-12-20T09:59:23;14.13;;;3.70;;
27893;SDS011;15240;50.812;4.792;2023-12-20T10:01:49;14.03;;;3.40;;
27893;SDS011;15240;50.812;4.792;2023-12-20T10:04:16;18.53;;;4.23;;
27893;SDS011;15240;50.812;4.792;2023-12-20T10:06:42;16.37;;;3.90;;
27893;SDS011;15240;50.812;4.792;2023-12-20T10:09:09;15.03;;;4.00;;
27893;SDS011;15240;50.812;4.792;2023-12-20T10:11:36;14.03;;;4.10;;
27893;SDS011;15240;50.812;4.792;2023-12-20T10:14:02;15.67;;;3.80;;
27893;SDS011;15240;50.812;4.792;2023-12-20T10:16:29;14.53;;;3.47;;
27893;SDS011;15240;50.812;4.792;2023-12-20T10:18:55;17.10;;;3.63;;
27893;SDS011;15240;50.812;4.792;2023-12-20T10:21:22;15.03;;;3.93;;
27893;SDS011;15240;50.812;4.792;2023-12-20T10:23:49;14.67;;;3.67;;
27893;SDS011;15240;50.812;4.792;2023-12-20T10:26:19;17.70;;;3.53;;
27893;SDS011;15240;50.812;4.792;2023-12-20T10:28:46;12.97;;;3.53;;
27893;SDS011;15240;50.812;4.792;2023-12-20T10:31:26;14.30;;;3.50;;
27893;SDS011;15240;50.812;4.792;2023-12-20T10:33:52;15.47;;;3.97;;
27893;SDS011;15240;50.812;4.792;2023-12-20T10:36:19;13.03;;;3.63;;
27893;SDS011;15240;50.812;4.792;2023-12-20T10:38:45;13.83;;;3.73;;
27893;SDS011;15240;50.812;4.792;2023-12-20T10:41:12;16.67;;;3.47;;
27893;SDS011;15240;50.812;4.792;2023-12-20T10:43:42;9.93;;;3.17;;
27893;SDS011;15240;50.812;4.792;2023-12-20T10:46:08;19.83;;;3.67;;
27893;SDS011;15240;50.812;4.792;2023-12-20T10:48:34;15.37;;;3.43;;
27893;SDS011;15240;50.812;4.792;2023-12-20T10:51:01;15.53;;;3.40;;
27893;SDS011;15240;50.812;4.792;2023-12-20T10:53:27;17.50;;;3.43;;
27893;SDS011;15240;50.812;4.792;2023-12-20T10:55:55;12.87;;;3.80;;
27893;SDS011;15240;50.812;4.792;2023-12-20T10:58:24;17.00;;;3.80;;
27893;SDS011;15240;50.812;4.792;2023-12-20T11:00:52;18.57;;;4.10;;
27893;SDS011;15240;50.812;4.792;2023-12-20T11:03:23;18.83;;;3.63;;
27893;SDS011;15240;50.812;4.792;2023-12-20T11:05:53;14.27;;;3.90;;
27893;SDS011;15240;50.812;4.792;2023-12-20T11:08:26;18.33;;;3.77;;
27893;SDS011;15240;50.812;4.792;2023-12-20T11:14:00;16.17;;;4.27;;
27893;SDS011;15240;50.812;4.792;2023-12-20T11:16:18;15.47;;;4.00;;
27893;SDS011;15240;50.812;4.792;2023-12-20T11:18:44;14.97;;;3.90;;
27893;SDS011;15240;50.812;4.792;2023-12-20T11:21:11;15.77;;;4.00;;
27893;SDS011;15240;50.812;4.792;2023-12-20T11:23:39;18.60;;;4.30;;
27893;SDS011;15240;50.812;4.792;2023-12-20T11:26:08;14.73;;;3.90;;
27893;SDS011;15240;50.812;4.792;2023-12-20T11:28:34;17.93;;;4.33;;
27893;SDS011;15240;50.812;4.792;2023-12-20T11:31:00;13.70;;;3.90;;
27893;SDS011;15240;50.812;4.792;2023-12-20T11:33:29;18.60;;;4.37;;
27893;SDS011;15240;50.812;4.792;2023-12-20T11:35:56;13.47;;;3.97;;
27893;SDS011;15240;50.812;4.792;2023-12-20T11:38:23;19.20;;;3.80;;
27893;SDS011;15240;50.812;4.792;2023-12-20T11:40:49;16.33;;;4.03;;
27893;SDS011;15240;50.812;4.792;2023-12-20T11:46:03;17.83;;;3.93;;
27893;SDS011;15240;50.812;4.792;2023-12-20T11:48:30;14.57;;;3.90;;
27893;SDS011;15240;50.812;4.792;2023-12-20T11:50:57;17.33;;;4.20;;
27893;SDS011;15240;50.812;4.792;2023-12-20T11:53:23;15.30;;;3.73;;
27893;SDS011;15240;50.812;4.792;2023-12-20T11:55:49;21.37;;;3.87;;
27893;SDS011;15240;50.812;4.792;2023-12-20T11:58:15;11.40;;;3.30;;
27893;SDS011;15240;50.812;4.792;2023-12-20T12:00:41;12.20;;;3.57;;
27893;SDS011;15240;50.812;4.792;2023-12-20T12:03:08;13.83;;;3.43;;
27893;SDS011;15240;50.812;4.792;2023-12-20T12:05:34;15.07;;;3.60;;
27893;SDS011;15240;50.812;4.792;2023-12-20T12:08:01;11.73;;;3.73;;
27893;SDS011;15240;50.812;4.792;2023-12-20T12:10:27;15.07;;;3.73;;
27893;SDS011;15240;50.812;4.792;2023-12-20T12:12:53;15.90;;;3.53;;
27893;SDS011;15240;50.812;4.792;2023-12-20T12:15:19;15.77;;;3.37;;
27893;SDS011;15240;50.812;4.792;2023-12-20T12:17:55;19.77;;;3.37;;
27893;SDS011;15240;50.812;4.792;2023-12-20T12:20:22;15.57;;;4.17;;
27893;SDS011;15240;50.812;4.792;2023-12-20T12:22:59;15.23;;;3.77;;
27893;SDS011;15240;50.812;4.792;2023-12-20T12:25:25;17.63;;;4.30;;
27893;SDS011;15240;50.812;4.792;2023-12-20T12:27:52;17.93;;;4.17;;
27893;SDS011;15240;50.812;4.792;2023-12-20T12:30:18;18.60;;;3.93;;
27893;SDS011;15240;50.812;4.792;2023-12-20T12:32:44;16.07;;;4.03;;
27893;SDS011;15240;50.812;4.792;2023-12-20T12:35:10;17.10;;;4.10;;
27893;SDS011;15240;50.812;4.792;2023-12-20T12:37:37;14.10;;;3.93;;
27893;SDS011;15240;50.812;4.792;2023-12-20T12:40:10;19.20;;;4.00;;
27893;SDS011;15240;50.812;4.792;2023-12-20T12:42:37;13.30;;;4.10;;
27893;SDS011;15240;50.812;4.792;2023-12-20T12:45:03;16.40;;;3.83;;
27893;SDS011;15240;50.812;4.792;2023-12-20T12:47:30;14.00;;;3.70;;
27893;SDS011;15240;50.812;4.792;2023-12-20T12:49:56;17.77;;;4.53;;
27893;SDS011;15240;50.812;4.792;2023-12-20T12:52:22;13.63;;;3.77;;
27893;SDS011;15240;50.812;4.792;2023-12-20T12:54:48;15.23;;;3.83;;
27893;SDS011;15240;50.812;4.792;2023-12-20T12:57:14;14.27;;;3.87;;
27893;SDS011;15240;50.812;4.792;2023-12-20T12:59:42;16.67;;;4.00;;
27893;SDS011;15240;50.812;4.792;2023-12-20T13:02:10;18.53;;;4.40;;
27893;SDS011;15240;50.812;4.792;2023-12-20T13:04:36;17.87;;;4.13;;
27893;SDS011;15240;50.812;4.792;2023-12-20T13:07:02;13.97;;;3.93;;
27893;SDS011;15240;50.812;4.792;2023-12-20T13:09:29;13.37;;;3.83;;
27893;SDS011;15240;50.812;4.792;2023-12-20T13:11:55;15.37;;;4.20;;
27893;SDS011;15240;50.812;4.792;2023-12-20T13:14:21;15.90;;;4.30;;
27893;SDS011;15240;50.812;4.792;2023-12-20T13:16:48;20.77;;;4.30;;
27893;SDS011;15240;50.812;4.792;2023-12-20T13:19:14;17.47;;;4.37;;
27893;SDS011;15240;50.812;4.792;2023-12-20T13:21:40;15.70;;;4.60;;
27893;SDS011;15240;50.812;4.792;2023-12-20T13:24:06;18.80;;;4.90;;
27893;SDS011;15240;50.812;4.792;2023-12-20T13:26:32;18.83;;;4.03;;
27893;SDS011;15240;50.812;4.792;2023-12-20T13:28:58;19.63;;;4.70;;
27893;SDS011;15240;50.812;4.792;2023-12-20T13:31:24;19.53;;;4.53;;
27893;SDS011;15240;50.812;4.792;2023-12-20T13:33:50;18.87;;;5.07;;
27893;SDS011;15240;50.812;4.792;2023-12-20T13:36:17;19.83;;;4.60;;
27893;SDS011;15240;50.812;4.792;2023-12-20T13:38:44;16.17;;;4.73;;
27893;SDS011;15240;50.812;4.792;2023-12-20T13:41:10;15.27;;;4.33;;
27893;SDS011;15240;50.812;4.792;2023-12-20T13:43:36;16.70;;;4.60;;
27893;SDS011;15240;50.812;4.792;2023-12-20T13:46:02;16.73;;;4.17;;
27893;SDS011;15240;50.812;4.792;2023-12-20T13:48:28;14.27;;;4.33;;
27893;SDS011;15240;50.812;4.792;2023-12-20T13:50:54;20.43;;;4.67;;
27893;SDS011;15240;50.812;4.792;2023-12-20T13:53:20;21.83;;;5.03;;
27893;SDS011;15240;50.812;4.792;2023-12-20T13:55:46;20.90;;;5.07;;
27893;SDS011;15240;50.812;4.792;2023-12-20T13:58:12;13.27;;;4.23;;
27893;SDS011;15240;50.812;4.792;2023-12-20T14:00:38;18.07;;;4.40;;
27893;SDS011;15240;50.812;4.792;2023-12-20T14:03:04;24.20;;;5.03;;
27893;SDS011;15240;50.812;4.792;2023-12-20T14:05:30;19.20;;;4.60;;
27893;SDS011;15240;50.812;4.792;2023-12-20T14:07:56;16.10;;;4.33;;
27893;SDS011;15240;50.812;4.792;2023-12-20T14:10:23;17.77;;;4.27;;
27893;SDS011;15240;50.812;4.792;2023-12-20T14:12:51;18.27;;;4.80;;
27893;SDS011;15240;50.812;4.792;2023-12-20T14:15:17;21.23;;;4.67;;
27893;SDS011;15240;50.812;4.792;2023-12-20T14:17:43;15.77;;;4.43;;
27893;SDS011;15240;50.812;4.792;2023-12-20T14:20:09;14.53;;;4.83;;
27893;SDS011;15240;50.812;4.792;2023-12-20T14:22:38;22.33;;;4.87;;
27893;SDS011;15240;50.812;4.792;2023-12-20T14:25:08;15.97;;;4.60;;
27893;SDS011;15240;50.812;4.792;2023-12-20T14:27:37;18.03;;;4.73;;
27893;SDS011;15240;50.812;4.792;2023-12-20T14:30:03;14.97;;;4.60;;
27893;SDS011;15240;50.812;4.792;2023-12-20T14:32:29;23.93;;;4.93;;
27893;SDS011;15240;50.812;4.792;2023-12-20T14:34:55;20.50;;;5.60;;
27893;SDS011;15240;50.812;4.792;2023-12-20T14:37:22;19.20;;;4.87;;